Notl Virgil

*Note: All times are displayed in the local standard time of the station location.
**Rain - Equipment is designed to accurately record liquid precipitation; under conditions when precipitation is not in liquid form, the data displayed may not properly reflect rainfall values.

Date Max Temp
(°C)
Min Temp
(°C)
Avg Temp
(°C)
Rain (mm) Avg RH (%) Solar Rad (kJ/m2)
Fri, Dec 14, 2018 7.1 1.5 4.2 1.6 85.2 961.4
Thu, Dec 13, 2018 7.5 -2.2 1.4 0.6 92.1 3655.4
Wed, Dec 12, 2018 2.0 -5.1 -0.3 0.2 86.0 2119.5
Tue, Dec 11, 2018 0.6 -1.4 -0.6 0.0 83.5 508.5
Mon, Dec 10, 2018 1.6 -1.8 -0.2 0.0 81.4 888.9
Sun, Dec 09, 2018 1.6 -8.2 -2.2 0.0 76.9 5229.5
Sat, Dec 08, 2018 0.2 -5.4 -2.6 0.0 76.7 5083.8
DateTime Avg Temp (°C) Rain (mm) RH (%) Solar Rad (kJ/m2)
Sat, Dec 15, 2018 17:00 3.1 0.0 89.0 12.0
Sat, Dec 15, 2018 16:00 3.8 0.0 86.4 81.5
Sat, Dec 15, 2018 15:00 4.1 0.0 84.7 213.4
Sat, Dec 15, 2018 14:00 4.4 0.0 83.5 325.0
Sat, Dec 15, 2018 13:00 4.7 0.0 82.7 452.6
Sat, Dec 15, 2018 12:00 4.2 0.0 86.6 425.0
Sat, Dec 15, 2018 11:00 3.5 0.0 93.6 312.5
Sat, Dec 15, 2018 10:00 2.7 0.0 98.6 221.0
Sat, Dec 15, 2018 09:00 1.6 0.0 99.9 83.3
Sat, Dec 15, 2018 08:00 1.3 0.0 99.9 5.9
Sat, Dec 15, 2018 07:00 1.7 0.0 99.9 0.0
Sat, Dec 15, 2018 06:00 0.6 0.0 99.9 0.0
Sat, Dec 15, 2018 05:00 -0.1 0.0 99.9 0.3
Sat, Dec 15, 2018 04:00 0.5 0.0 99.2 0.0
Sat, Dec 15, 2018 03:00 1.8 0.0 95.5 0.0
Sat, Dec 15, 2018 02:00 2.6 0.0 93.6 0.6
Sat, Dec 15, 2018 01:00 3.2 0.0 92.5 0.3
Sat, Dec 15, 2018 00:00 4.5 0.0 90.5 0.3
Fri, Dec 14, 2018 23:00 4.6 0.0 90.2 0.3
Fri, Dec 14, 2018 22:00 4.7 0.0 87.9 0.0
Fri, Dec 14, 2018 21:00 4.2 0.0 90.9 0.0
Fri, Dec 14, 2018 20:00 4.0 0.0 91.1 0.6
Fri, Dec 14, 2018 19:00 3.4 0.0 87.1 0.0
Fri, Dec 14, 2018 18:00 3.3 0.0 84.7 0.3
Fri, Dec 14, 2018 17:00 5.9 0.0 74.4 31.7
Fri, Dec 14, 2018 16:00 6.8 0.0 74.5 91.7
Fri, Dec 14, 2018 15:00 6.5 0.0 80.9 204.5
Fri, Dec 14, 2018 14:00 5.9 0.0 82.4 197.1
Fri, Dec 14, 2018 13:00 5.2 0.0 88.2 124.3
Fri, Dec 14, 2018 12:00 4.6 0.4 93.6 116.6
Fri, Dec 14, 2018 11:00 4.5 1.0 90.5 64.9
Fri, Dec 14, 2018 10:00 4.8 0.2 81.4 82.6
Fri, Dec 14, 2018 09:00 4.5 0.0 79.7 44.3
Fri, Dec 14, 2018 08:00 4.0 0.0 82.2 1.6
Fri, Dec 14, 2018 07:00 3.6 0.0 82.1 0.0
Fri, Dec 14, 2018 06:00 3.3 0.0 82.2 0.0
Fri, Dec 14, 2018 05:00 2.8 0.0 83.9 0.0
Fri, Dec 14, 2018 04:00 2.4 0.0 85.0 0.0
Fri, Dec 14, 2018 03:00 1.8 0.0 87.4 0.3
Fri, Dec 14, 2018 02:00 2.3 0.0 87.3 0.3
Fri, Dec 14, 2018 01:00 2.3 0.0 87.9 0.0
Fri, Dec 14, 2018 00:00 2.0 0.0 89.2 0.0
Thu, Dec 13, 2018 23:00 1.1 0.0 93.2 0.0
Thu, Dec 13, 2018 22:00 0.1 0.0 95.7 0.9
Thu, Dec 13, 2018 21:00 1.3 0.0 92.5 0.3
Thu, Dec 13, 2018 20:00 2.0 0.0 90.7 0.3
Thu, Dec 13, 2018 19:00 2.3 0.0 90.4 0.9
Thu, Dec 13, 2018 18:00 2.0 0.0 90.6 0.6


asterix Register now to access more data! asterix